Wetterdaten: aktuell Dienstag, 07.12.2021 00:10
Datum Zeit Temp. A. Feuchte A. Luftdruck Regen Wind Richtung Richtung Sonnenschein Taupunkt Windchill Windböen
07.12.2021 00:10 0,7 °C 95 % 1007,3 hPa 0,0 l/m² 0,0 km/h (0 Bft) N 0 ° 0 min -0,0 °C 0,7 °C 0,0 km/h (0 Bft)
06.12.2021 23:10 0,8 °C 95 % 1008,4 hPa 0,0 l/m² 3,2 km/h (1 Bft) O-SO 112 ° 0 min 0,1 °C 0,8 °C 8,0 km/h (2 Bft)
06.12.2021 22:10 0,7 °C 95 % 1009,1 hPa 0,0 l/m² 3,2 km/h (1 Bft) SO 135 ° 0 min -0,0 °C 0,7 °C 6,4 km/h (2 Bft)
06.12.2021 21:10 0,9 °C 95 % 1010,2 hPa 0,2 l/m² 1,6 km/h (1 Bft) S-SO 157 ° 0 min 0,2 °C 0,9 °C 6,4 km/h (2 Bft)
06.12.2021 20:10 1,1 °C 95 % 1011,1 hPa 0,0 l/m² 0,0 km/h (0 Bft) O 90 ° 0 min 0,4 °C 1,1 °C 4,8 km/h (1 Bft)
06.12.2021 19:10 1,1 °C 95 % 1012,1 hPa 0,0 l/m² 0,0 km/h (0 Bft) SO 135 ° 0 min 0,4 °C 1,1 °C 1,6 km/h (1 Bft)
06.12.2021 18:10 1,3 °C 96 % 1012,2 hPa 0,0 l/m² 0,0 km/h (0 Bft) O-SO 112 ° 0 min 0,7 °C 1,3 °C 3,2 km/h (1 Bft)
06.12.2021 17:10 1,4 °C 97 % 1012,4 hPa 0,0 l/m² 1,6 km/h (1 Bft) SO 135 ° 0 min 1,0 °C 1,4 °C 4,8 km/h (1 Bft)
06.12.2021 16:10 1,4 °C 97 % 1013,4 hPa 0,2 l/m² 0,0 km/h (0 Bft) O-SO 112 ° 0 min 1,0 °C 1,4 °C 3,2 km/h (1 Bft)
06.12.2021 15:10 1,7 °C 97 % 1013,9 hPa 0,2 l/m² 0,0 km/h (0 Bft) O-SO 112 ° 0 min 1,3 °C 1,7 °C 3,2 km/h (1 Bft)
06.12.2021 14:10 1,6 °C 98 % 1014,8 hPa 0,0 l/m² 0,0 km/h (0 Bft) N 0 ° 0 min 1,3 °C 1,6 °C 0,0 km/h (0 Bft)
06.12.2021 13:10 1,3 °C 98 % 1015,3 hPa 0,2 l/m² 0,0 km/h (0 Bft) S-SO 157 ° 0 min 1,0 °C 1,3 °C 1,6 km/h (1 Bft)
06.12.2021 12:10 0,8 °C 98 % 1015,5 hPa 0,2 l/m² 0,0 km/h (0 Bft) N 0 ° 0 min 0,5 °C 0,8 °C 0,0 km/h (0 Bft)
06.12.2021 11:10 0,8 °C 98 % 1015,9 hPa 0,2 l/m² 0,0 km/h (0 Bft) N 0 ° 0 min 0,5 °C 0,8 °C 0,0 km/h (0 Bft)
06.12.2021 10:10 0,4 °C 98 % 1016,7 hPa 0,2 l/m² 0,0 km/h (0 Bft) N 0 ° 0 min 0,1 °C 0,4 °C 0,0 km/h (0 Bft)
06.12.2021 09:10 0,4 °C 98 % 1016,3 hPa 0,0 l/m² 3,2 km/h (1 Bft) S 180 ° 0 min 0,1 °C 0,4 °C 9,7 km/h (2 Bft)
06.12.2021 08:10 0,4 °C 98 % 1016,4 hPa 0,0 l/m² 0,0 km/h (0 Bft) N 0 ° 0 min 0,1 °C 0,4 °C 0,0 km/h (0 Bft)
06.12.2021 07:10 0,4 °C 98 % 1016,4 hPa 0,0 l/m² 0,0 km/h (0 Bft) N 0 ° 0 min 0,1 °C 0,4 °C 0,0 km/h (0 Bft)
06.12.2021 06:10 0,4 °C 98 % 1015,9 hPa 0,2 l/m² 0,0 km/h (0 Bft) N 0 ° 0 min 0,1 °C 0,4 °C 0,0 km/h (0 Bft)
06.12.2021 05:10 0,4 °C 98 % 1015,4 hPa 0,0 l/m² 0,0 km/h (0 Bft) N 0 ° 0 min 0,1 °C 0,4 °C 0,0 km/h (0 Bft)
06.12.2021 04:10 0,5 °C 98 % 1014,9 hPa 0,0 l/m² 0,0 km/h (0 Bft) N 0 ° 0 min 0,2 °C 0,5 °C 0,0 km/h (0 Bft)
06.12.2021 03:10 0,6 °C 98 % 1014,5 hPa 0,2 l/m² 0,0 km/h (0 Bft) O 90 ° 0 min 0,3 °C 0,6 °C 1,6 km/h (1 Bft)
06.12.2021 02:10 0,7 °C 98 % 1014,5 hPa 0,0 l/m² 0,0 km/h (0 Bft) N 0 ° 0 min 0,4 °C 0,7 °C 0,0 km/h (0 Bft)
06.12.2021 01:10 0,6 °C 98 % 1013,8 hPa 0,0 l/m² 0,0 km/h (0 Bft) O 90 ° 0 min 0,3 °C 0,6 °C 3,2 km/h (1 Bft)
06.12.2021 01:00 0,6 °C 98 % 1013,8 hPa 0,0 l/m² 0,0 km/h (0 Bft) N 0 ° 0 min 0,3 °C 0,6 °C 0,0 km/h (0 Bft)
_ Min-Zeit 05:34 18:32 00:06 - 01:00 - - - 21:34 05:34 01:00
Minimum _ 0,3 °C 95 % 1007,3 hPa - 0,0 km/h (0 Bft) - - - -0,0 °C 0,3 °C 0,0 km/h (0 Bft)
_ Max-Zeit 14:30 01:00 10:27 02:41 19:52 - - 01:00 14:30 14:30 16:36
Maximum _ 1,7 °C 98 % 1017,1 hPa 0,2 l/m² 6,4 km/h
O (2 Bft)
- - 0 min 1,4 °C 1,7 °C 14,5 km/h
O-SO (3 Bft)
Durchschnitt _ 0,8 °C 97 % 1013,8 hPa #1,8 l/m² 0,5 km/h (0 Bft) O-SO - #0 min. 0,4 °C 0,8 °C 2,2 km/h (1 Bft)